sensor_id;sensor_type;location;lat;lon;timestamp;temperature;humidity
22852;DHT22;11592;45.460;9.240;2023-09-30T00:00:07;20.70;99.90
22852;DHT22;11592;45.460;9.240;2023-09-30T00:02:35;20.70;99.90
22852;DHT22;11592;45.460;9.240;2023-09-30T00:05:02;20.80;99.90
22852;DHT22;11592;45.460;9.240;2023-09-30T00:07:30;20.60;99.90
22852;DHT22;11592;45.460;9.240;2023-09-30T00:09:58;20.60;99.90
22852;DHT22;11592;45.460;9.240;2023-09-30T00:12:26;20.70;99.90
22852;DHT22;11592;45.460;9.240;2023-09-30T00:14:53;20.70;99.90
22852;DHT22;11592;45.460;9.240;2023-09-30T00:17:20;20.60;99.90
22852;DHT22;11592;45.460;9.240;2023-09-30T00:19:47;20.60;99.90
22852;DHT22;11592;45.460;9.240;2023-09-30T00:22:14;20.60;99.90
22852;DHT22;11592;45.460;9.240;2023-09-30T00:24:40;20.70;99.90
22852;DHT22;11592;45.460;9.240;2023-09-30T00:27:07;20.70;99.90
22852;DHT22;11592;45.460;9.240;2023-09-30T00:29:34;20.70;99.90
22852;DHT22;11592;45.460;9.240;2023-09-30T00:32:02;20.70;99.90
22852;DHT22;11592;45.460;9.240;2023-09-30T00:34:32;20.70;99.90
22852;DHT22;11592;45.460;9.240;2023-09-30T00:37:00;20.70;99.90
22852;DHT22;11592;45.460;9.240;2023-09-30T00:39:26;20.70;99.90
22852;DHT22;11592;45.460;9.240;2023-09-30T00:41:58;20.60;99.90
22852;DHT22;11592;45.460;9.240;2023-09-30T00:44:30;20.60;99.90
22852;DHT22;11592;45.460;9.240;2023-09-30T00:46:57;20.70;99.90
22852;DHT22;11592;45.460;9.240;2023-09-30T00:49:25;20.60;99.90
22852;DHT22;11592;45.460;9.240;2023-09-30T00:51:53;20.50;99.90
22852;DHT22;11592;45.460;9.240;2023-09-30T00:54:22;20.50;99.90
22852;DHT22;11592;45.460;9.240;2023-09-30T00:56:52;20.50;99.90
22852;DHT22;11592;45.460;9.240;2023-09-30T00:59:23;20.50;99.90
22852;DHT22;11592;45.460;9.240;2023-09-30T01:01:51;20.40;99.90
22852;DHT22;11592;45.460;9.240;2023-09-30T01:04:20;20.40;99.90
22852;DHT22;11592;45.460;9.240;2023-09-30T01:06:47;20.40;99.90
22852;DHT22;11592;45.460;9.240;2023-09-30T01:09:14;20.50;99.90
22852;DHT22;11592;45.460;9.240;2023-09-30T01:11:41;20.50;99.90
22852;DHT22;11592;45.460;9.240;2023-09-30T01:14:26;20.50;99.90
22852;DHT22;11592;45.460;9.240;2023-09-30T01:16:54;20.40;99.90
22852;DHT22;11592;45.460;9.240;2023-09-30T01:19:22;20.50;99.90
22852;DHT22;11592;45.460;9.240;2023-09-30T01:21:55;20.40;99.90
22852;DHT22;11592;45.460;9.240;2023-09-30T01:24:29;20.50;99.90
22852;DHT22;11592;45.460;9.240;2023-09-30T01:26:56;20.30;99.90
22852;DHT22;11592;45.460;9.240;2023-09-30T01:29:23;20.30;99.90
22852;DHT22;11592;45.460;9.240;2023-09-30T01:31:52;20.30;99.90
22852;DHT22;11592;45.460;9.240;2023-09-30T01:34:20;20.30;99.90
22852;DHT22;11592;45.460;9.240;2023-09-30T01:36:47;20.40;99.90
22852;DHT22;11592;45.460;9.240;2023-09-30T01:39:14;20.30;99.90
22852;DHT22;11592;45.460;9.240;2023-09-30T01:41:41;20.40;99.90
22852;DHT22;11592;45.460;9.240;2023-09-30T01:44:08;20.30;99.90
22852;DHT22;11592;45.460;9.240;2023-09-30T01:46:35;20.30;99.90
22852;DHT22;11592;45.460;9.240;2023-09-30T01:49:03;20.10;99.90
22852;DHT22;11592;45.460;9.240;2023-09-30T01:51:33;20.20;99.90
22852;DHT22;11592;45.460;9.240;2023-09-30T01:53:59;20.30;99.90
22852;DHT22;11592;45.460;9.240;2023-09-30T01:56:26;20.30;99.90
22852;DHT22;11592;45.460;9.240;2023-09-30T01:58:53;20.30;99.90
22852;DHT22;11592;45.460;9.240;2023-09-30T02:01:21;20.40;99.90
22852;DHT22;11592;45.460;9.240;2023-09-30T02:03:47;20.40;99.90
22852;DHT22;11592;45.460;9.240;2023-09-30T02:06:14;20.40;99.90
22852;DHT22;11592;45.460;9.240;2023-09-30T02:08:41;20.30;99.90
22852;DHT22;11592;45.460;9.240;2023-09-30T02:11:11;20.20;99.90
22852;DHT22;11592;45.460;9.240;2023-09-30T02:13:41;20.20;99.90
22852;DHT22;11592;45.460;9.240;2023-09-30T02:16:13;20.20;99.90
22852;DHT22;11592;45.460;9.240;2023-09-30T02:18:43;20.20;99.90
22852;DHT22;11592;45.460;9.240;2023-09-30T02:21:11;20.20;99.90
22852;DHT22;11592;45.460;9.240;2023-09-30T02:23:38;20.10;99.90
22852;DHT22;11592;45.460;9.240;2023-09-30T02:26:05;20.00;99.90
22852;DHT22;11592;45.460;9.240;2023-09-30T02:28:32;20.00;99.90
22852;DHT22;11592;45.460;9.240;2023-09-30T02:31:00;20.00;99.90
22852;DHT22;11592;45.460;9.240;2023-09-30T02:33:27;20.00;99.90
22852;DHT22;11592;45.460;9.240;2023-09-30T02:35:54;20.10;99.90
22852;DHT22;11592;45.460;9.240;2023-09-30T02:38:21;20.00;99.90
22852;DHT22;11592;45.460;9.240;2023-09-30T02:40:50;20.10;99.90
22852;DHT22;11592;45.460;9.240;2023-09-30T02:43:18;20.00;99.90
22852;DHT22;11592;45.460;9.240;2023-09-30T02:45:45;19.70;99.90
22852;DHT22;11592;45.460;9.240;2023-09-30T02:48:12;19.60;99.90
22852;DHT22;11592;45.460;9.240;2023-09-30T02:50:43;19.60;99.90
22852;DHT22;11592;45.460;9.240;2023-09-30T02:53:13;19.70;99.90
22852;DHT22;11592;45.460;9.240;2023-09-30T02:55:41;19.70;99.90
22852;DHT22;11592;45.460;9.240;2023-09-30T02:58:09;19.80;99.90
22852;DHT22;11592;45.460;9.240;2023-09-30T03:00:35;19.70;99.90
22852;DHT22;11592;45.460;9.240;2023-09-30T03:03:04;19.50;99.90
22852;DHT22;11592;45.460;9.240;2023-09-30T03:05:31;19.40;99.90
22852;DHT22;11592;45.460;9.240;2023-09-30T03:08:00;19.40;99.90
22852;DHT22;11592;45.460;9.240;2023-09-30T03:10:27;19.50;99.90
22852;DHT22;11592;45.460;9.240;2023-09-30T03:12:54;19.50;99.90
22852;DHT22;11592;45.460;9.240;2023-09-30T03:15:22;19.50;99.90
22852;DHT22;11592;45.460;9.240;2023-09-30T03:17:50;19.60;99.90
22852;DHT22;11592;45.460;9.240;2023-09-30T03:20:19;19.60;99.90
22852;DHT22;11592;45.460;9.240;2023-09-30T03:22:47;19.60;99.90
22852;DHT22;11592;45.460;9.240;2023-09-30T03:25:16;19.70;99.90
22852;DHT22;11592;45.460;9.240;2023-09-30T03:27:45;19.70;99.90
22852;DHT22;11592;45.460;9.240;2023-09-30T03:30:16;19.60;99.90
22852;DHT22;11592;45.460;9.240;2023-09-30T03:32:43;19.60;99.90
22852;DHT22;11592;45.460;9.240;2023-09-30T03:35:11;19.50;99.90
22852;DHT22;11592;45.460;9.240;2023-09-30T03:37:41;19.50;99.90
22852;DHT22;11592;45.460;9.240;2023-09-30T03:40:09;19.50;99.90
22852;DHT22;11592;45.460;9.240;2023-09-30T03:42:41;19.50;99.90
22852;DHT22;11592;45.460;9.240;2023-09-30T03:45:12;19.50;99.90
22852;DHT22;11592;45.460;9.240;2023-09-30T03:47:41;19.50;99.90
22852;DHT22;11592;45.460;9.240;2023-09-30T03:50:09;19.60;99.90
22852;DHT22;11592;45.460;9.240;2023-09-30T03:52:43;19.60;99.90
22852;DHT22;11592;45.460;9.240;2023-09-30T03:55:14;19.40;99.90
22852;DHT22;11592;45.460;9.240;2023-09-30T03:57:43;19.20;99.90
22852;DHT22;11592;45.460;9.240;2023-09-30T04:00:10;19.10;99.90
22852;DHT22;11592;45.460;9.240;2023-09-30T04:02:42;19.20;99.90
22852;DHT22;11592;45.460;9.240;2023-09-30T04:05:10;19.20;99.90
22852;DHT22;11592;45.460;9.240;2023-09-30T04:07:39;19.30;99.90
22852;DHT22;11592;45.460;9.240;2023-09-30T04:10:06;19.30;99.90
22852;DHT22;11592;45.460;9.240;2023-09-30T04:12:33;19.40;99.90
22852;DHT22;11592;45.460;9.240;2023-09-30T04:15:00;19.40;99.90
22852;DHT22;11592;45.460;9.240;2023-09-30T04:17:27;19.30;99.90
22852;DHT22;11592;45.460;9.240;2023-09-30T04:19:54;19.10;99.90
22852;DHT22;11592;45.460;9.240;2023-09-30T04:22:21;19.00;99.90
22852;DHT22;11592;45.460;9.240;2023-09-30T04:24:48;19.10;99.90
22852;DHT22;11592;45.460;9.240;2023-09-30T04:27:20;19.10;99.90
22852;DHT22;11592;45.460;9.240;2023-09-30T04:29:48;19.00;99.90
22852;DHT22;11592;45.460;9.240;2023-09-30T04:32:16;18.90;99.90
22852;DHT22;11592;45.460;9.240;2023-09-30T04:34:43;18.80;99.90
22852;DHT22;11592;45.460;9.240;2023-09-30T04:37:13;18.80;99.90
22852;DHT22;11592;45.460;9.240;2023-09-30T04:39:40;18.70;99.90
22852;DHT22;11592;45.460;9.240;2023-09-30T04:42:07;18.70;99.90
22852;DHT22;11592;45.460;9.240;2023-09-30T04:44:38;18.70;99.90
22852;DHT22;11592;45.460;9.240;2023-09-30T04:47:05;18.60;99.90
22852;DHT22;11592;45.460;9.240;2023-09-30T04:49:32;18.80;99.90
22852;DHT22;11592;45.460;9.240;2023-09-30T04:51:59;18.70;99.90
22852;DHT22;11592;45.460;9.240;2023-09-30T04:54:25;18.80;99.90
22852;DHT22;11592;45.460;9.240;2023-09-30T04:56:52;19.00;99.90
22852;DHT22;11592;45.460;9.240;2023-09-30T04:59:19;18.90;99.90
22852;DHT22;11592;45.460;9.240;2023-09-30T05:01:46;18.70;99.90
22852;DHT22;11592;45.460;9.240;2023-09-30T05:04:13;18.60;99.90
22852;DHT22;11592;45.460;9.240;2023-09-30T05:06:40;18.70;99.90
22852;DHT22;11592;45.460;9.240;2023-09-30T05:09:07;18.70;99.90
22852;DHT22;11592;45.460;9.240;2023-09-30T05:11:34;18.80;99.90
22852;DHT22;11592;45.460;9.240;2023-09-30T05:14:02;18.80;99.90
22852;DHT22;11592;45.460;9.240;2023-09-30T05:16:32;18.80;99.90
22852;DHT22;11592;45.460;9.240;2023-09-30T05:18:59;18.70;99.90
22852;DHT22;11592;45.460;9.240;2023-09-30T05:21:25;18.80;99.90
22852;DHT22;11592;45.460;9.240;2023-09-30T05:23:53;18.90;99.90
22852;DHT22;11592;45.460;9.240;2023-09-30T05:26:20;18.90;99.90
22852;DHT22;11592;45.460;9.240;2023-09-30T05:28:47;18.90;99.90
22852;DHT22;11592;45.460;9.240;2023-09-30T05:31:13;18.80;99.90
22852;DHT22;11592;45.460;9.240;2023-09-30T05:33:40;18.70;99.90
22852;DHT22;11592;45.460;9.240;2023-09-30T05:36:07;18.70;99.90
22852;DHT22;11592;45.460;9.240;2023-09-30T05:38:35;18.80;99.90
22852;DHT22;11592;45.460;9.240;2023-09-30T05:41:02;18.90;99.90
22852;DHT22;11592;45.460;9.240;2023-09-30T05:43:29;19.00;99.90
22852;DHT22;11592;45.460;9.240;2023-09-30T05:45:56;19.00;99.90
22852;DHT22;11592;45.460;9.240;2023-09-30T05:48:27;19.00;99.90
22852;DHT22;11592;45.460;9.240;2023-09-30T05:50:55;19.10;99.90
22852;DHT22;11592;45.460;9.240;2023-09-30T05:53:22;19.20;99.90
22852;DHT22;11592;45.460;9.240;2023-09-30T05:55:49;19.20;99.90
22852;DHT22;11592;45.460;9.240;2023-09-30T05:58:17;19.30;99.90
22852;DHT22;11592;45.460;9.240;2023-09-30T06:00:44;19.30;99.90
22852;DHT22;11592;45.460;9.240;2023-09-30T06:03:11;19.30;99.90
22852;DHT22;11592;45.460;9.240;2023-09-30T06:05:41;19.30;99.90
22852;DHT22;11592;45.460;9.240;2023-09-30T06:08:09;19.30;99.90
22852;DHT22;11592;45.460;9.240;2023-09-30T06:10:41;19.30;99.90
22852;DHT22;11592;45.460;9.240;2023-09-30T06:13:11;19.30;99.90
22852;DHT22;11592;45.460;9.240;2023-09-30T06:15:42;19.30;99.90
22852;DHT22;11592;45.460;9.240;2023-09-30T06:18:10;19.30;99.90
22852;DHT22;11592;45.460;9.240;2023-09-30T06:20:40;19.30;99.90
22852;DHT22;11592;45.460;9.240;2023-09-30T06:23:08;19.20;99.90
22852;DHT22;11592;45.460;9.240;2023-09-30T06:25:36;19.20;99.90
22852;DHT22;11592;45.460;9.240;2023-09-30T06:28:03;19.30;99.90
22852;DHT22;11592;45.460;9.240;2023-09-30T06:30:30;19.30;99.90
22852;DHT22;11592;45.460;9.240;2023-09-30T06:33:00;19.30;99.90
22852;DHT22;11592;45.460;9.240;2023-09-30T06:35:28;19.30;99.90
22852;DHT22;11592;45.460;9.240;2023-09-30T06:38:04;19.50;99.90
22852;DHT22;11592;45.460;9.240;2023-09-30T06:40:33;19.80;99.90
22852;DHT22;11592;45.460;9.240;2023-09-30T06:43:04;20.00;99.90
22852;DHT22;11592;45.460;9.240;2023-09-30T06:45:31;20.10;99.90
22852;DHT22;11592;45.460;9.240;2023-09-30T06:47:59;20.10;99.90
22852;DHT22;11592;45.460;9.240;2023-09-30T06:50:26;20.10;99.90
22852;DHT22;11592;45.460;9.240;2023-09-30T06:52:53;20.10;99.90
22852;DHT22;11592;45.460;9.240;2023-09-30T06:55:20;19.80;99.90
22852;DHT22;11592;45.460;9.240;2023-09-30T06:57:47;19.70;99.90
22852;DHT22;11592;45.460;9.240;2023-09-30T07:00:14;19.80;99.90
22852;DHT22;11592;45.460;9.240;2023-09-30T07:02:42;20.00;99.90
22852;DHT22;11592;45.460;9.240;2023-09-30T07:05:10;20.10;99.90
22852;DHT22;11592;45.460;9.240;2023-09-30T07:07:38;20.30;99.90
22852;DHT22;11592;45.460;9.240;2023-09-30T07:10:06;20.40;99.90
22852;DHT22;11592;45.460;9.240;2023-09-30T07:12:33;20.30;99.90
22852;DHT22;11592;45.460;9.240;2023-09-30T07:15:06;20.50;99.90
22852;DHT22;11592;45.460;9.240;2023-09-30T07:17:33;20.50;99.90
22852;DHT22;11592;45.460;9.240;2023-09-30T07:20:01;20.30;99.90
22852;DHT22;11592;45.460;9.240;2023-09-30T07:22:29;20.40;99.90
22852;DHT22;11592;45.460;9.240;2023-09-30T07:24:58;20.40;99.90
22852;DHT22;11592;45.460;9.240;2023-09-30T07:27:25;20.20;99.90
22852;DHT22;11592;45.460;9.240;2023-09-30T07:29:54;20.40;99.90
22852;DHT22;11592;45.460;9.240;2023-09-30T07:32:21;20.60;99.90
22852;DHT22;11592;45.460;9.240;2023-09-30T07:34:51;20.80;99.90
22852;DHT22;11592;45.460;9.240;2023-09-30T07:37:18;21.10;99.90
22852;DHT22;11592;45.460;9.240;2023-09-30T07:39:47;21.20;99.90
22852;DHT22;11592;45.460;9.240;2023-09-30T07:42:14;21.20;99.90
22852;DHT22;11592;45.460;9.240;2023-09-30T07:44:41;21.30;99.90
22852;DHT22;11592;45.460;9.240;2023-09-30T07:47:08;21.50;99.90
22852;DHT22;11592;45.460;9.240;2023-09-30T07:49:37;21.60;99.90
22852;DHT22;11592;45.460;9.240;2023-09-30T07:52:04;21.50;99.90
22852;DHT22;11592;45.460;9.240;2023-09-30T07:54:31;21.60;99.90
22852;DHT22;11592;45.460;9.240;2023-09-30T07:56:58;21.70;99.90
22852;DHT22;11592;45.460;9.240;2023-09-30T07:59:26;21.70;99.90
22852;DHT22;11592;45.460;9.240;2023-09-30T08:01:53;21.90;99.90
22852;DHT22;11592;45.460;9.240;2023-09-30T08:04:20;22.00;99.90
22852;DHT22;11592;45.460;9.240;2023-09-30T08:06:49;22.00;99.90
22852;DHT22;11592;45.460;9.240;2023-09-30T08:09:16;22.20;99.90
22852;DHT22;11592;45.460;9.240;2023-09-30T08:11:45;22.30;99.90
22852;DHT22;11592;45.460;9.240;2023-09-30T08:14:12;22.30;99.90
22852;DHT22;11592;45.460;9.240;2023-09-30T08:16:38;22.30;99.90
22852;DHT22;11592;45.460;9.240;2023-09-30T08:19:05;22.40;99.90
22852;DHT22;11592;45.460;9.240;2023-09-30T08:21:32;22.40;99.90
22852;DHT22;11592;45.460;9.240;2023-09-30T08:23:59;22.40;99.90
22852;DHT22;11592;45.460;9.240;2023-09-30T08:26:26;22.50;99.90
22852;DHT22;11592;45.460;9.240;2023-09-30T08:28:53;22.60;99.90
22852;DHT22;11592;45.460;9.240;2023-09-30T08:31:20;22.60;99.90
22852;DHT22;11592;45.460;9.240;2023-09-30T08:33:48;22.60;99.90
22852;DHT22;11592;45.460;9.240;2023-09-30T08:36:15;22.90;99.90
22852;DHT22;11592;45.460;9.240;2023-09-30T08:38:42;23.00;99.90
22852;DHT22;11592;45.460;9.240;2023-09-30T08:41:10;23.10;99.90
22852;DHT22;11592;45.460;9.240;2023-09-30T08:43:39;22.90;99.90
22852;DHT22;11592;45.460;9.240;2023-09-30T08:46:06;23.20;99.90
22852;DHT22;11592;45.460;9.240;2023-09-30T08:48:34;23.20;99.90
22852;DHT22;11592;45.460;9.240;2023-09-30T08:51:02;23.30;99.90
22852;DHT22;11592;45.460;9.240;2023-09-30T08:53:29;23.40;99.90
22852;DHT22;11592;45.460;9.240;2023-09-30T08:55:57;23.40;99.90
22852;DHT22;11592;45.460;9.240;2023-09-30T08:58:27;23.30;99.90
22852;DHT22;11592;45.460;9.240;2023-09-30T09:00:55;23.30;99.90
22852;DHT22;11592;45.460;9.240;2023-09-30T09:03:23;23.30;99.90
22852;DHT22;11592;45.460;9.240;2023-09-30T09:05:54;23.00;99.90
22852;DHT22;11592;45.460;9.240;2023-09-30T09:08:25;22.80;99.90
22852;DHT22;11592;45.460;9.240;2023-09-30T09:11:00;22.90;99.90
22852;DHT22;11592;45.460;9.240;2023-09-30T09:13:27;23.10;99.90
22852;DHT22;11592;45.460;9.240;2023-09-30T09:16:10;23.20;99.90
22852;DHT22;11592;45.460;9.240;2023-09-30T09:18:38;23.20;99.90
22852;DHT22;11592;45.460;9.240;2023-09-30T09:21:14;23.10;99.90
22852;DHT22;11592;45.460;9.240;2023-09-30T09:23:43;23.00;99.90
22852;DHT22;11592;45.460;9.240;2023-09-30T09:26:12;23.20;99.90
22852;DHT22;11592;45.460;9.240;2023-09-30T09:28:43;23.10;99.90
22852;DHT22;11592;45.460;9.240;2023-09-30T09:31:20;23.00;99.90
22852;DHT22;11592;45.460;9.240;2023-09-30T09:33:51;23.00;99.90
22852;DHT22;11592;45.460;9.240;2023-09-30T09:36:18;23.00;99.90
22852;DHT22;11592;45.460;9.240;2023-09-30T09:38:50;23.00;99.90
22852;DHT22;11592;45.460;9.240;2023-09-30T09:41:20;23.00;99.90
22852;DHT22;11592;45.460;9.240;2023-09-30T09:43:50;23.30;99.90
22852;DHT22;11592;45.460;9.240;2023-09-30T09:46:19;23.60;99.90
22852;DHT22;11592;45.460;9.240;2023-09-30T09:48:46;23.50;99.90
22852;DHT22;11592;45.460;9.240;2023-09-30T09:51:16;23.30;99.90
22852;DHT22;11592;45.460;9.240;2023-09-30T09:53:43;23.60;99.90
22852;DHT22;11592;45.460;9.240;2023-09-30T09:56:10;23.80;99.90
22852;DHT22;11592;45.460;9.240;2023-09-30T09:58:39;24.00;99.90
22852;DHT22;11592;45.460;9.240;2023-09-30T10:01:09;24.00;99.90
22852;DHT22;11592;45.460;9.240;2023-09-30T10:03:38;24.20;99.90
22852;DHT22;11592;45.460;9.240;2023-09-30T10:06:06;24.50;99.90
22852;DHT22;11592;45.460;9.240;2023-09-30T10:08:38;24.60;99.90
22852;DHT22;11592;45.460;9.240;2023-09-30T10:11:07;24.10;99.90
22852;DHT22;11592;45.460;9.240;2023-09-30T10:13:53;24.10;99.90
22852;DHT22;11592;45.460;9.240;2023-09-30T10:19:17;24.80;99.90
22852;DHT22;11592;45.460;9.240;2023-09-30T10:24:42;25.40;99.90
22852;DHT22;11592;45.460;9.240;2023-09-30T10:40:57;26.20;99.90
22852;DHT22;11592;45.460;9.240;2023-09-30T10:43:30;26.50;99.90
22852;DHT22;11592;45.460;9.240;2023-09-30T10:46:00;26.60;99.90
22852;DHT22;11592;45.460;9.240;2023-09-30T10:51:17;27.10;99.90
22852;DHT22;11592;45.460;9.240;2023-09-30T10:53:50;27.30;99.90
22852;DHT22;11592;45.460;9.240;2023-09-30T10:56:24;27.60;99.90
22852;DHT22;11592;45.460;9.240;2023-09-30T10:58:57;27.80;99.90
22852;DHT22;11592;45.460;9.240;2023-09-30T11:01:25;27.90;99.90
22852;DHT22;11592;45.460;9.240;2023-09-30T11:03:59;28.10;99.90
22852;DHT22;11592;45.460;9.240;2023-09-30T11:06:30;28.50;99.90
22852;DHT22;11592;45.460;9.240;2023-09-30T11:08:59;28.60;99.90
22852;DHT22;11592;45.460;9.240;2023-09-30T11:14:29;29.10;99.90
22852;DHT22;11592;45.460;9.240;2023-09-30T11:17:02;29.50;99.90
22852;DHT22;11592;45.460;9.240;2023-09-30T11:19:45;29.90;99.90
22852;DHT22;11592;45.460;9.240;2023-09-30T11:22:13;29.60;99.90
22852;DHT22;11592;45.460;9.240;2023-09-30T11:24:41;29.70;99.90
22852;DHT22;11592;45.460;9.240;2023-09-30T11:27:08;29.80;99.90
22852;DHT22;11592;45.460;9.240;2023-09-30T11:29:35;30.30;99.90
22852;DHT22;11592;45.460;9.240;2023-09-30T11:32:02;30.60;99.90
22852;DHT22;11592;45.460;9.240;2023-09-30T11:34:36;30.90;99.90
22852;DHT22;11592;45.460;9.240;2023-09-30T11:37:04;31.30;99.90
22852;DHT22;11592;45.460;9.240;2023-09-30T11:39:32;31.70;99.90
22852;DHT22;11592;45.460;9.240;2023-09-30T11:42:00;31.90;99.90
22852;DHT22;11592;45.460;9.240;2023-09-30T11:44:28;32.50;99.90
22852;DHT22;11592;45.460;9.240;2023-09-30T11:46:59;33.70;97.30
22852;DHT22;11592;45.460;9.240;2023-09-30T11:49:32;34.80;95.30
22852;DHT22;11592;45.460;9.240;2023-09-30T11:52:03;35.40;93.70
22852;DHT22;11592;45.460;9.240;2023-09-30T11:54:32;36.30;93.10
22852;DHT22;11592;45.460;9.240;2023-09-30T11:57:00;38.00;91.10
22852;DHT22;11592;45.460;9.240;2023-09-30T11:59:27;39.10;87.50
22852;DHT22;11592;45.460;9.240;2023-09-30T12:01:54;40.20;85.00
22852;DHT22;11592;45.460;9.240;2023-09-30T12:04:39;41.60;78.50
22852;DHT22;11592;45.460;9.240;2023-09-30T12:07:05;42.60;70.70
22852;DHT22;11592;45.460;9.240;2023-09-30T12:09:33;43.30;65.90
22852;DHT22;11592;45.460;9.240;2023-09-30T12:12:04;44.30;61.60
22852;DHT22;11592;45.460;9.240;2023-09-30T12:14:31;45.10;58.10
22852;DHT22;11592;45.460;9.240;2023-09-30T12:16:59;45.70;55.30
22852;DHT22;11592;45.460;9.240;2023-09-30T12:19:25;45.00;52.90
22852;DHT22;11592;45.460;9.240;2023-09-30T12:21:53;43.20;55.10
22852;DHT22;11592;45.460;9.240;2023-09-30T12:24:20;43.10;55.30
22852;DHT22;11592;45.460;9.240;2023-09-30T12:26:49;43.00;54.60
22852;DHT22;11592;45.460;9.240;2023-09-30T12:29:17;42.80;54.50
22852;DHT22;11592;45.460;9.240;2023-09-30T12:31:45;43.40;53.30
22852;DHT22;11592;45.460;9.240;2023-09-30T12:34:19;44.30;54.10
22852;DHT22;11592;45.460;9.240;2023-09-30T12:36:46;44.80;52.50
22852;DHT22;11592;45.460;9.240;2023-09-30T12:39:14;44.30;50.30
22852;DHT22;11592;45.460;9.240;2023-09-30T12:41:44;43.10;51.30
22852;DHT22;11592;45.460;9.240;2023-09-30T12:44:12;42.90;51.50
22852;DHT22;11592;45.460;9.240;2023-09-30T12:46:40;42.80;52.40
22852;DHT22;11592;45.460;9.240;2023-09-30T12:49:07;44.50;53.60
22852;DHT22;11592;45.460;9.240;2023-09-30T12:51:35;45.70;49.50
22852;DHT22;11592;45.460;9.240;2023-09-30T12:54:03;45.60;48.00
22852;DHT22;11592;45.460;9.240;2023-09-30T12:56:31;44.30;48.60
22852;DHT22;11592;45.460;9.240;2023-09-30T12:58:59;45.60;49.30
22852;DHT22;11592;45.460;9.240;2023-09-30T13:01:26;46.20;46.20
22852;DHT22;11592;45.460;9.240;2023-09-30T13:03:55;46.30;45.80
22852;DHT22;11592;45.460;9.240;2023-09-30T13:06:22;44.00;47.50
22852;DHT22;11592;45.460;9.240;2023-09-30T13:08:49;45.50;47.90
22852;DHT22;11592;45.460;9.240;2023-09-30T13:11:16;46.50;46.20
22852;DHT22;11592;45.460;9.240;2023-09-30T13:13:44;46.30;47.30
22852;DHT22;11592;45.460;9.240;2023-09-30T13:16:12;45.70;44.90
22852;DHT22;11592;45.460;9.240;2023-09-30T13:18:39;45.70;44.80
22852;DHT22;11592;45.460;9.240;2023-09-30T13:21:06;46.30;45.30
22852;DHT22;11592;45.460;9.240;2023-09-30T13:23:34;46.40;44.10
22852;DHT22;11592;45.460;9.240;2023-09-30T13:26:01;46.40;43.60
22852;DHT22;11592;45.460;9.240;2023-09-30T13:28:28;46.30;42.60
22852;DHT22;11592;45.460;9.240;2023-09-30T13:30:56;44.10;44.50
22852;DHT22;11592;45.460;9.240;2023-09-30T13:33:23;42.10;46.30
22852;DHT22;11592;45.460;9.240;2023-09-30T13:35:50;42.00;46.40
22852;DHT22;11592;45.460;9.240;2023-09-30T13:38:17;42.90;46.50
22852;DHT22;11592;45.460;9.240;2023-09-30T13:40:44;44.40;44.20
22852;DHT22;11592;45.460;9.240;2023-09-30T13:43:12;45.10;43.50
22852;DHT22;11592;45.460;9.240;2023-09-30T13:45:39;45.10;42.90
22852;DHT22;11592;45.460;9.240;2023-09-30T13:48:07;45.30;47.20
22852;DHT22;11592;45.460;9.240;2023-09-30T13:50:34;45.80;45.20
22852;DHT22;11592;45.460;9.240;2023-09-30T13:53:01;43.20;44.00
22852;DHT22;11592;45.460;9.240;2023-09-30T13:55:29;39.90;46.80
22852;DHT22;11592;45.460;9.240;2023-09-30T13:57:56;37.40;50.30
22852;DHT22;11592;45.460;9.240;2023-09-30T14:00:23;35.60;53.40
22852;DHT22;11592;45.460;9.240;2023-09-30T14:02:51;34.40;55.40
22852;DHT22;11592;45.460;9.240;2023-09-30T14:05:18;33.80;56.60
22852;DHT22;11592;45.460;9.240;2023-09-30T14:07:45;33.20;59.40
22852;DHT22;11592;45.460;9.240;2023-09-30T14:10:12;32.90;58.40
22852;DHT22;11592;45.460;9.240;2023-09-30T14:12:40;32.20;59.30
22852;DHT22;11592;45.460;9.240;2023-09-30T14:15:07;31.50;61.10
22852;DHT22;11592;45.460;9.240;2023-09-30T14:17:35;31.50;61.80
22852;DHT22;11592;45.460;9.240;2023-09-30T14:20:02;31.40;63.00
22852;DHT22;11592;45.460;9.240;2023-09-30T14:22:33;30.90;63.00
22852;DHT22;11592;45.460;9.240;2023-09-30T14:24:59;30.80;64.30
22852;DHT22;11592;45.460;9.240;2023-09-30T14:27:26;30.70;64.70
22852;DHT22;11592;45.460;9.240;2023-09-30T14:29:53;30.40;65.60
22852;DHT22;11592;45.460;9.240;2023-09-30T14:32:20;30.50;66.40
22852;DHT22;11592;45.460;9.240;2023-09-30T14:34:47;30.20;67.80
22852;DHT22;11592;45.460;9.240;2023-09-30T14:37:14;30.30;68.20
22852;DHT22;11592;45.460;9.240;2023-09-30T14:39:41;30.60;70.20
22852;DHT22;11592;45.460;9.240;2023-09-30T14:42:08;30.60;68.70
22852;DHT22;11592;45.460;9.240;2023-09-30T14:44:35;30.70;69.90
22852;DHT22;11592;45.460;9.240;2023-09-30T14:47:02;30.70;68.80
22852;DHT22;11592;45.460;9.240;2023-09-30T14:49:33;30.20;69.40
22852;DHT22;11592;45.460;9.240;2023-09-30T14:52:00;30.30;74.00
22852;DHT22;11592;45.460;9.240;2023-09-30T14:54:27;30.30;76.00
22852;DHT22;11592;45.460;9.240;2023-09-30T14:56:54;30.30;74.60
22852;DHT22;11592;45.460;9.240;2023-09-30T14:59:21;30.20;76.40
22852;DHT22;11592;45.460;9.240;2023-09-30T15:01:48;30.30;76.60
22852;DHT22;11592;45.460;9.240;2023-09-30T15:04:16;30.30;76.50
22852;DHT22;11592;45.460;9.240;2023-09-30T15:06:43;30.30;75.70
22852;DHT22;11592;45.460;9.240;2023-09-30T15:09:10;30.20;77.20
22852;DHT22;11592;45.460;9.240;2023-09-30T15:11:38;30.20;77.70
22852;DHT22;11592;45.460;9.240;2023-09-30T15:14:06;30.20;82.00
22852;DHT22;11592;45.460;9.240;2023-09-30T15:16:33;30.10;79.60
22852;DHT22;11592;45.460;9.240;2023-09-30T15:19:01;30.00;76.70
22852;DHT22;11592;45.460;9.240;2023-09-30T15:21:28;30.00;80.70
22852;DHT22;11592;45.460;9.240;2023-09-30T15:23:55;29.90;78.80
22852;DHT22;11592;45.460;9.240;2023-09-30T15:26:22;29.50;78.30
22852;DHT22;11592;45.460;9.240;2023-09-30T15:28:49;29.60;81.70
22852;DHT22;11592;45.460;9.240;2023-09-30T15:31:15;29.70;81.80
22852;DHT22;11592;45.460;9.240;2023-09-30T15:33:42;29.90;81.80
22852;DHT22;11592;45.460;9.240;2023-09-30T15:36:14;29.90;79.90
22852;DHT22;11592;45.460;9.240;2023-09-30T15:38:44;29.80;79.90
22852;DHT22;11592;45.460;9.240;2023-09-30T15:41:14;29.70;79.60
22852;DHT22;11592;45.460;9.240;2023-09-30T15:43:41;29.70;80.70
22852;DHT22;11592;45.460;9.240;2023-09-30T15:46:09;30.20;80.20
22852;DHT22;11592;45.460;9.240;2023-09-30T15:48:36;31.20;81.60
22852;DHT22;11592;45.460;9.240;2023-09-30T15:51:03;31.00;78.80
22852;DHT22;11592;45.460;9.240;2023-09-30T15:53:30;30.70;79.50
22852;DHT22;11592;45.460;9.240;2023-09-30T15:56:00;30.40;83.00
22852;DHT22;11592;45.460;9.240;2023-09-30T15:58:29;30.00;78.90
22852;DHT22;11592;45.460;9.240;2023-09-30T16:00:56;29.80;81.50